Bellwood, AL (36313)

9:37 PM CDT on August 30, 2015 (GMT -0500)
Fort Rucker / Ozark | | Change Station
CLOSE
Current Station
Airport
Location: Fort Rucker / Ozark,
Elevation: 243 ft
Nearby Weather Stations

Elev 243 ft 31.36 °N, 85.75 °W | Updated 44 minutes ago

Clear
Clear
74 °F
Feels Like 74 °F
N
0
Wind Variable Wind from North

Today
High -- | Low -- °F
--% Chance of Precip.
Yesterday
High -- | Low -- °F
Precip. -- in
6:17 AM 7:09 PM
Full, 97% visible
Pressure 30.01 in
Visibility 10.0 miles
Clouds Clear
Dew Point 68 °F
Humidity 82%
Rainfall 0.00 in
Snow Depth Not available.
UV 0 out of 12
Pollen 8.60 out of 12
Air Quality Not available.
Flu Activity Not available.
METAR KLOR 310153Z AUTO 00000KT 10SM CLR 23/20 A3002 RMK AO2 SLP161 T02330200
Pressure 30.01 in
Visibility 10.0 miles
Clouds Clear
Dew Point 68 °F
Humidity 82%
Rainfall 0.00 in
Snow Depth Not available.
UV 0 out of 12
Pollen 8.60 out of 12
Air Quality Not available.
Flu Activity Not available.
METAR KLOR 310153Z AUTO 00000KT 10SM CLR 23/20 A3002 RMK AO2 SLP161 T02330200

10-Day Weather Forecast

×

Almanac

Astronomy

Aug. 30, 2015 Rise Set
Actual Time
Civil Twilight
Nautical Twilight
Astronomical Twilight
Moon
Length of Visible Light
Length of Day
Tomorrow will be .
, % of the Moon is Illuminated

Today's Extremes

State Highs State Lows

Community

WunderPhotos

Upload Photos

1,851,164 photos uploaded!

WunderBlogs® & News

Nearby

Air Quality

  Air Quality AQ Index Pollutant
Not available.

Snow Depth

Station Depth Elevation

Earthquake Activity

City Distance Mag. Time & Date
Minimum magnitude displayed is 2.5.

Coastal Water Temperatures

Place Temperature

Stations

Nearby Weather Stations

Station Location Temp. Windchill Dew Point Humidity Wind Precip. Elev Updated Type